F/V Manathia — FGSL — position and weather

sailwx.info

Track history (hours):
 
Tides and Currents Weather Stations Pressure Air Temp Water Temp Dewpoint Dewpoint Depression Visibility Wind Speed Wind Dir Waves Ship Positions

F/V Manathia

Last reported at 2018-May-27 04:38 UTC. Time now 2018-May-27 08:11 UTC.
Position N 47°37' W 004°13'.

Length 16 m.

Type: Fishing. MMSI: 228258000.

Date/timePositionNaut miles runAvg speedWind from/ knotsBaromVisibWave heightAir tempDewpointWater temp
2018-May-27 04:38N 47°37' W 004°13'16 2.2
2018-May-26 21:30N 47°30' W 003°51'2 3.0
2018-May-26 20:48N 47°29' W 003°48'1 3.4
2018-May-26 20:31N 47°28' W 003°48'2 3.4
2018-May-26 20:00N 47°28' W 003°51'2 3.3
2018-May-26 19:30N 47°30' W 003°52'2 3.3
2018-May-26 19:01N 47°30' W 003°54'2 3.1
2018-May-26 18:29N 47°31' W 003°57'19 3.3
2018-May-26 12:43N 47°39' W 004°23'24 3.2
2018-May-26 05:24N 47°31' W 003°50'1 3.8
2018-May-26 05:00N 47°31' W 003°48'2 3.9
2018-May-26 04:30N 47°33' W 003°45'2 3.9
2018-May-26 03:57N 47°34' W 003°43'2 4.1
2018-May-26 03:27N 47°35' W 003°40'4 8.9
2018-May-26 02:58N 47°38' W 003°35'4 8.9
2018-May-26 02:28N 47°40' W 003°30'4 8.8
2018-May-26 02:01N 47°41' W 003°24'3 5.6
2018-May-26 01:30N 47°44' W 003°22'0 0.0
2018-May-26 01:00N 47°44' W 003°22'0 0.0
2018-May-26 00:30N 47°44' W 003°22'2 3.4
2018-May-26 00:00N 47°42' W 003°22'5 9.2
2018-May-25 23:28N 47°37' W 003°22'4 9.3
2018-May-25 23:00N 47°33' W 003°22'5 9.5
2018-May-25 22:30N 47°28' W 003°23'4 9.1
2018-May-25 22:00N 47°24' W 003°24'5 9.2
2018-May-25 21:31N 47°19' W 003°24'5 9.3
2018-May-25 21:01N 47°14' W 003°25'5 9.1
2018-May-25 20:30N 47°10' W 003°25'2 2.9
2018-May-25 19:59N 47°09' W 003°27'2 3.8
2018-May-25 19:30N 47°08' W 003°29'2 3.7
2018-May-25 19:00N 47°06' W 003°30'2 3.6
2018-May-25 18:29N 47°04' W 003°30'2 3.7
2018-May-25 17:59N 47°02' W 003°30'2 3.7
2018-May-25 17:24N 47°00' W 003°29'1 3.7
2018-May-25 17:00N 46°59' W 003°28'2 3.7
2018-May-25 16:29N 46°57' W 003°27'2 3.8
2018-May-25 15:59N 46°56' W 003°25'1 2.8
2018-May-25 15:29N 46°55' W 003°23'2 1.8
2018-May-25 14:13N 46°56' W 003°27'1 0.6
2018-May-25 12:29N 46°56' W 003°25'13 1.4
2018-May-25 02:58N 47°06' W 003°38'1 2.5
2018-May-25 02:29N 47°07' W 003°40'1 3.0
2018-May-25 02:00N 47°06' W 003°41'2 2.9
2018-May-25 01:26N 47°07' W 003°43'4 1.6
2018-May-24 23:05N 47°08' W 003°37'4 3.1
2018-May-24 21:43N 47°08' W 003°31'1 3.7
2018-May-24 21:28N 47°08' W 003°30'1 2.0
2018-May-24 21:00N 47°07' W 003°30'2 3.5
2018-May-24 20:30N 47°05' W 003°30'2 3.5
2018-May-24 20:00N 47°03' W 003°30'2 3.5
2018-May-24 19:17N 47°01' W 003°28'1 3.5
2018-May-24 19:00N 47°00' W 003°28'2 3.3
2018-May-24 18:29N 46°59' W 003°27'2 3.5
2018-May-24 18:01N 46°57' W 003°26'2 2.2
2018-May-24 17:12N 46°55' W 003°25'10 0.9
2018-May-24 05:59N 47°04' W 003°33'4 3.0
2018-May-24 04:47N 47°07' W 003°35'1 3.2
2018-May-24 04:28N 47°08' W 003°36'2 2.9
2018-May-24 03:53N 47°09' W 003°38'4 5.8
2018-May-24 03:12N 47°12' W 003°41'0 1.1
2018-May-24 03:00N 47°12' W 003°41'2 3.1
2018-May-24 02:30N 47°14' W 003°43'2 3.4
2018-May-24 02:00N 47°15' W 003°43'2 3.5
2018-May-24 01:27N 47°17' W 003°44'2 3.4
2018-May-24 01:00N 47°19' W 003°44'2 3.4
2018-May-24 00:29N 47°21' W 003°45'2 3.3
2018-May-24 00:00N 47°22' W 003°46'2 3.4
2018-May-23 23:29N 47°23' W 003°47'2 2.8
2018-May-23 22:57N 47°25' W 003°46'3 7.1
2018-May-23 22:30N 47°27' W 003°42'4 9.0
2018-May-23 22:00N 47°31' W 003°40'4 8.8
2018-May-23 21:30N 47°35' W 003°37'2 3.7
2018-May-23 21:00N 47°35' W 003°34'2 3.5
2018-May-23 20:30N 47°35' W 003°32'2 3.6
2018-May-23 20:01N 47°33' W 003°30'2 3.5
2018-May-23 19:30N 47°32' W 003°30'2 3.4
2018-May-23 19:00N 47°30' W 003°30'2 3.4
2018-May-23 18:30N 47°28' W 003°30'1 2.3
2018-May-23 18:00N 47°27' W 003°31'1 2.0
2018-May-23 17:30N 47°26' W 003°31'1 2.0
2018-May-23 17:00N 47°27' W 003°32'2 3.6
2018-May-23 16:30N 47°29' W 003°32'2 3.2
2018-May-23 16:00N 47°30' W 003°33'2 3.1
2018-May-23 15:30N 47°32' W 003°32'2 3.1
2018-May-23 15:00N 47°32' W 003°30'1 3.0
2018-May-23 14:30N 47°31' W 003°29'2 3.3
2018-May-23 14:00N 47°29' W 003°29'2 3.1
2018-May-23 13:30N 47°29' W 003°31'2 3.1
2018-May-23 13:00N 47°28' W 003°32'2 3.3
2018-May-23 12:30N 47°26' W 003°31'2 3.4
2018-May-23 12:00N 47°25' W 003°29'1 2.7
2018-May-23 11:30N 47°26' W 003°29'2 3.7
2018-May-23 11:00N 47°28' W 003°29'2 3.6
2018-May-23 10:31N 47°30' W 003°29'3 5.3
2018-May-23 10:00N 47°32' W 003°27'4 8.6
2018-May-23 09:30N 47°35' W 003°23'4 8.8
2018-May-23 09:00N 47°40' W 003°22'4 8.0
2018-May-23 08:30N 47°44' W 003°22'0 0.0
2018-May-23 08:00N 47°44' W 003°22'0 0.0
2018-May-23 07:30N 47°44' W 003°22'0 0.0
2018-May-23 07:00N 47°44' W 003°22'0 0.0
2018-May-23 06:30N 47°44' W 003°22'0 0.0
2018-May-23 06:00N 47°44' W 003°22'0 0.0
2018-May-23 05:30N 47°44' W 003°22'0 0.0
2018-May-23 05:00N 47°44' W 003°22'0 0.0
2018-May-23 04:30N 47°44' W 003°22'0 0.0
2018-May-23 02:15N 47°44' W 003°22'0 0.0
2018-May-23 02:00N 47°44' W 003°22'0 0.0
2018-May-23 01:30N 47°44' W 003°22'0 0.0
2018-May-23 01:00N 47°44' W 003°22'2 3.9
2018-May-23 00:30N 47°42' W 003°22'4 8.4
2018-May-23 00:00N 47°38' W 003°22'4 8.4
2018-May-22 23:30N 47°33' W 003°23'4 8.6
2018-May-22 23:00N 47°29' W 003°24'4 8.4
2018-May-22 22:30N 47°25' W 003°26'4 8.2
2018-May-22 22:00N 47°21' W 003°27'4 8.3
2018-May-22 21:30N 47°17' W 003°29'5 8.5
2018-May-22 20:58N 47°13' W 003°29'4 8.2
2018-May-22 20:30N 47°09' W 003°31'1 2.1
2018-May-22 19:57N 47°08' W 003°31'4 3.3
2018-May-22 18:50N 47°04' W 003°30'2 3.4
2018-May-22 18:19N 47°03' W 003°29'1 3.5
2018-May-22 17:59N 47°02' W 003°28'2 3.3
2018-May-22 17:30N 47°00' W 003°27'2 3.4
2018-May-22 16:59N 46°59' W 003°27'2 3.4
2018-May-22 16:30N 46°57' W 003°26'2 3.5
2018-May-22 16:00N 46°55' W 003°25'1 1.6
2018-May-22 15:30N 46°55' W 003°24'2 2.3
2018-May-22 14:39N 46°57' W 003°23'0 3.3
2018-May-22 14:30N 46°57' W 003°24'1 0.3
2018-May-22 11:01N 46°57' W 003°25'0 3.0
2018-May-22 11:00N 46°57' W 003°25'8 3.0
2018-May-22 08:11N 46°50' W 003°17'0 1.1
2018-May-22 07:58N 46°50' W 003°17'4 3.3
2018-May-22 06:39N 46°47' W 003°12'1 3.5
2018-May-22 06:26N 46°47' W 003°11'5 3.5
2018-May-22 05:03N 46°44' W 003°05'1 3.5
2018-May-22 04:39N 46°44' W 003°03'1 3.5
2018-May-22 04:19N 46°43' W 003°02'2 3.7
2018-May-22 03:49N 46°42' W 002°60'1 1.6
2018-May-22 03:12N 46°42' W 003°01'1 3.1
2018-May-22 02:49N 46°43' W 003°03'1 3.2
2018-May-22 02:30N 46°43' W 003°04'2 3.1
2018-May-22 01:52N 46°44' W 003°07'2 3.1
2018-May-22 01:16N 46°45' W 003°09'1 3.1
2018-May-22 00:56N 46°46' W 003°10'2 3.0
2018-May-22 00:12N 46°46' W 003°13'1 3.1
2018-May-22 00:00N 46°46' W 003°14'2 3.1
2018-May-21 23:30N 46°46' W 003°17'2 3.1
2018-May-21 23:00N 46°46' W 003°19'22 2.7
2018-May-21 15:01N 47°02' W 003°41'0 3.2
2018-May-21 15:00N 47°02' W 003°41'2 3.1
2018-May-21 14:30N 47°03' W 003°41'7 5.8
2018-May-21 13:19N 47°10' W 003°38'3 9.2
2018-May-21 13:00N 47°12' W 003°36'5 9.2
2018-May-21 12:30N 47°16' W 003°33'4 8.9
2018-May-21 12:00N 47°21' W 003°30'5 9.1
2018-May-21 11:30N 47°25' W 003°28'5 9.3
2018-May-21 11:00N 47°29' W 003°25'4 8.7
2018-May-21 10:30N 47°33' W 003°22'4 9.1
2018-May-21 10:00N 47°37' W 003°22'4 8.9
2018-May-21 09:30N 47°42' W 003°22'2 3.8
2018-May-21 09:00N 47°44' W 003°22'0 0.1
2018-May-21 08:30N 47°44' W 003°22'  
2018-May-18 12:24N 47°44' W 003°22'0 0.0
2018-May-18 12:00N 47°44' W 003°22'0 0.0
2018-May-18 04:12N 47°44' W 003°22'0 0.0
2018-May-18 04:00N 47°44' W 003°22'0 0.0
2018-May-18 03:30N 47°44' W 003°22'0 0.0
2018-May-18 03:00N 47°44' W 003°22'0 0.0
2018-May-18 02:30N 47°44' W 003°22'0 0.0
2018-May-18 02:00N 47°44' W 003°22'0 0.0
2018-May-18 01:30N 47°44' W 003°22'0 0.0
2018-May-18 01:00N 47°44' W 003°22'0 0.0
2018-May-18 00:30N 47°44' W 003°22'0 0.0
2018-May-18 00:01N 47°44' W 003°22'0 0.1
2018-May-17 23:30N 47°44' W 003°22'0 0.3
2018-May-17 23:00N 47°44' W 003°22'0 0.0
2018-May-17 22:30N 47°44' W 003°22'0 0.0
2018-May-17 22:01N 47°44' W 003°22'2 3.3
2018-May-17 21:30N 47°42' W 003°22'4 8.3
2018-May-17 21:00N 47°38' W 003°23'4 7.3
2018-May-17 20:30N 47°36' W 003°27'4 8.6
2018-May-17 20:00N 47°33' W 003°32'3 5.6
2018-May-17 19:30N 47°31' W 003°35'0 0.5
2018-May-17 19:00N 47°31' W 003°35'0 0.2
2018-May-17 18:30N 47°31' W 003°35'2 3.3
2018-May-17 18:00N 47°30' W 003°34'2 3.3
2018-May-17 17:30N 47°29' W 003°36'2 3.7
2018-May-17 17:00N 47°29' W 003°39'1 2.5
2018-May-17 16:30N 47°27' W 003°39'1 2.3
2018-May-17 16:00N 47°28' W 003°38'1 2.6
2018-May-17 15:30N 47°27' W 003°37'2 3.1
2018-May-17 15:00N 47°27' W 003°39'2 3.1
2018-May-17 14:30N 47°28' W 003°40'1 2.8
2018-May-17 14:00N 47°28' W 003°38'1 2.9
2018-May-17 13:30N 47°27' W 003°36'1 2.6
2018-May-17 13:00N 47°28' W 003°38'2 3.4
2018-May-17 12:30N 47°27' W 003°40'1 2.6
2018-May-17 12:00N 47°27' W 003°42'2 3.2
2018-May-17 11:30N 47°28' W 003°40'2 3.3
2018-May-17 10:58N 47°29' W 003°38'2 3.4
2018-May-17 10:31N 47°28' W 003°36'1 2.5
2018-May-17 10:00N 47°27' W 003°38'2 3.1
2018-May-17 09:30N 47°28' W 003°40'2 3.2
2018-May-17 09:00N 47°29' W 003°38'2 3.5
2018-May-17 08:30N 47°29' W 003°36'1 2.6
2018-May-17 08:00N 47°28' W 003°37'1 1.7
2018-May-17 07:29N 47°27' W 003°37'1 2.8
2018-May-17 07:00N 47°27' W 003°39'1 2.9
2018-May-17 06:30N 47°28' W 003°40'1 1.5
2018-May-17 06:00N 47°27' W 003°41'2 3.2
2018-May-17 05:30N 47°28' W 003°39'2 3.5
2018-May-17 04:59N 47°30' W 003°38'  
Track history (hours):
 
Tides and Currents Weather Stations Pressure Air Temp Water Temp Dewpoint Dewpoint Depression Visibility Wind Speed Wind Dir Waves Ship Positions

F/V Manathia

Last reported at 2018-May-27 04:38 UTC. Time now 2018-May-27 08:11 UTC.
Position N 47°37' W 004°13'.

Length 16 m.

Type: Fishing. MMSI: 228258000.

Date/timePositionNaut miles runAvg speedWind from/ knotsBaromVisibWave heightAir tempDewpointWater temp
2018-May-27 04:38N 47°37' W 004°13'16 2.2
2018-May-26 21:30N 47°30' W 003°51'2 3.0
2018-May-26 20:48N 47°29' W 003°48'1 3.4
2018-May-26 20:31N 47°28' W 003°48'2 3.4
2018-May-26 20:00N 47°28' W 003°51'2 3.3
2018-May-26 19:30N 47°30' W 003°52'2 3.3
2018-May-26 19:01N 47°30' W 003°54'2 3.1
2018-May-26 18:29N 47°31' W 003°57'19 3.3
2018-May-26 12:43N 47°39' W 004°23'24 3.2
2018-May-26 05:24N 47°31' W 003°50'1 3.8
2018-May-26 05:00N 47°31' W 003°48'2 3.9
2018-May-26 04:30N 47°33' W 003°45'2 3.9
2018-May-26 03:57N 47°34' W 003°43'2 4.1
2018-May-26 03:27N 47°35' W 003°40'4 8.9
2018-May-26 02:58N 47°38' W 003°35'4 8.9
2018-May-26 02:28N 47°40' W 003°30'4 8.8
2018-May-26 02:01N 47°41' W 003°24'3 5.6
2018-May-26 01:30N 47°44' W 003°22'0 0.0
2018-May-26 01:00N 47°44' W 003°22'0 0.0
2018-May-26 00:30N 47°44' W 003°22'2 3.4
2018-May-26 00:00N 47°42' W 003°22'5 9.2
2018-May-25 23:28N 47°37' W 003°22'4 9.3
2018-May-25 23:00N 47°33' W 003°22'5 9.5
2018-May-25 22:30N 47°28' W 003°23'4 9.1
2018-May-25 22:00N 47°24' W 003°24'5 9.2
2018-May-25 21:31N 47°19' W 003°24'5 9.3
2018-May-25 21:01N 47°14' W 003°25'5 9.1
2018-May-25 20:30N 47°10' W 003°25'2 2.9
2018-May-25 19:59N 47°09' W 003°27'2 3.8
2018-May-25 19:30N 47°08' W 003°29'2 3.7
2018-May-25 19:00N 47°06' W 003°30'2 3.6
2018-May-25 18:29N 47°04' W 003°30'2 3.7
2018-May-25 17:59N 47°02' W 003°30'2 3.7
2018-May-25 17:24N 47°00' W 003°29'1 3.7
2018-May-25 17:00N 46°59' W 003°28'2 3.7
2018-May-25 16:29N 46°57' W 003°27'2 3.8
2018-May-25 15:59N 46°56' W 003°25'1 2.8
2018-May-25 15:29N 46°55' W 003°23'2 1.8
2018-May-25 14:13N 46°56' W 003°27'1 0.6
2018-May-25 12:29N 46°56' W 003°25'13 1.4
2018-May-25 02:58N 47°06' W 003°38'1 2.5
2018-May-25 02:29N 47°07' W 003°40'1 3.0
2018-May-25 02:00N 47°06' W 003°41'2 2.9
2018-May-25 01:26N 47°07' W 003°43'4 1.6
2018-May-24 23:05N 47°08' W 003°37'4 3.1
2018-May-24 21:43N 47°08' W 003°31'1 3.7
2018-May-24 21:28N 47°08' W 003°30'1 2.0
2018-May-24 21:00N 47°07' W 003°30'2 3.5
2018-May-24 20:30N 47°05' W 003°30'2 3.5
2018-May-24 20:00N 47°03' W 003°30'2 3.5
2018-May-24 19:17N 47°01' W 003°28'1 3.5
2018-May-24 19:00N 47°00' W 003°28'2 3.3
2018-May-24 18:29N 46°59' W 003°27'2 3.5
2018-May-24 18:01N 46°57' W 003°26'2 2.2
2018-May-24 17:12N 46°55' W 003°25'10 0.9
2018-May-24 05:59N 47°04' W 003°33'4 3.0
2018-May-24 04:47N 47°07' W 003°35'1 3.2
2018-May-24 04:28N 47°08' W 003°36'2 2.9
2018-May-24 03:53N 47°09' W 003°38'4 5.8
2018-May-24 03:12N 47°12' W 003°41'0 1.1
2018-May-24 03:00N 47°12' W 003°41'2 3.1
2018-May-24 02:30N 47°14' W 003°43'2 3.4
2018-May-24 02:00N 47°15' W 003°43'2 3.5
2018-May-24 01:27N 47°17' W 003°44'2 3.4
2018-May-24 01:00N 47°19' W 003°44'2 3.4
2018-May-24 00:29N 47°21' W 003°45'2 3.3
2018-May-24 00:00N 47°22' W 003°46'2 3.4
2018-May-23 23:29N 47°23' W 003°47'2 2.8
2018-May-23 22:57N 47°25' W 003°46'3 7.1
2018-May-23 22:30N 47°27' W 003°42'4 9.0
2018-May-23 22:00N 47°31' W 003°40'4 8.8
2018-May-23 21:30N 47°35' W 003°37'2 3.7
2018-May-23 21:00N 47°35' W 003°34'2 3.5
2018-May-23 20:30N 47°35' W 003°32'2 3.6
2018-May-23 20:01N 47°33' W 003°30'2 3.5
2018-May-23 19:30N 47°32' W 003°30'2 3.4
2018-May-23 19:00N 47°30' W 003°30'2 3.4
2018-May-23 18:30N 47°28' W 003°30'1 2.3
2018-May-23 18:00N 47°27' W 003°31'1 2.0
2018-May-23 17:30N 47°26' W 003°31'1 2.0
2018-May-23 17:00N 47°27' W 003°32'2 3.6
2018-May-23 16:30N 47°29' W 003°32'2 3.2
2018-May-23 16:00N 47°30' W 003°33'2 3.1
2018-May-23 15:30N 47°32' W 003°32'2 3.1
2018-May-23 15:00N 47°32' W 003°30'1 3.0
2018-May-23 14:30N 47°31' W 003°29'2 3.3
2018-May-23 14:00N 47°29' W 003°29'2 3.1
2018-May-23 13:30N 47°29' W 003°31'2 3.1
2018-May-23 13:00N 47°28' W 003°32'2 3.3
2018-May-23 12:30N 47°26' W 003°31'2 3.4
2018-May-23 12:00N 47°25' W 003°29'1 2.7
2018-May-23 11:30N 47°26' W 003°29'2 3.7
2018-May-23 11:00N 47°28' W 003°29'2 3.6
2018-May-23 10:31N 47°30' W 003°29'3 5.3
2018-May-23 10:00N 47°32' W 003°27'4 8.6
2018-May-23 09:30N 47°35' W 003°23'4 8.8
2018-May-23 09:00N 47°40' W 003°22'4 8.0
2018-May-23 08:30N 47°44' W 003°22'0 0.0
2018-May-23 08:00N 47°44' W 003°22'0 0.0
2018-May-23 07:30N 47°44' W 003°22'0 0.0
2018-May-23 07:00N 47°44' W 003°22'0 0.0
2018-May-23 06:30N 47°44' W 003°22'0 0.0
2018-May-23 06:00N 47°44' W 003°22'0 0.0
2018-May-23 05:30N 47°44' W 003°22'0 0.0
2018-May-23 05:00N 47°44' W 003°22'0 0.0
2018-May-23 04:30N 47°44' W 003°22'0 0.0
2018-May-23 02:15N 47°44' W 003°22'0 0.0
2018-May-23 02:00N 47°44' W 003°22'0 0.0
2018-May-23 01:30N 47°44' W 003°22'0 0.0
2018-May-23 01:00N 47°44' W 003°22'2 3.9
2018-May-23 00:30N 47°42' W 003°22'4 8.4
2018-May-23 00:00N 47°38' W 003°22'4 8.4
2018-May-22 23:30N 47°33' W 003°23'4 8.6
2018-May-22 23:00N 47°29' W 003°24'4 8.4
2018-May-22 22:30N 47°25' W 003°26'4 8.2
2018-May-22 22:00N 47°21' W 003°27'4 8.3
2018-May-22 21:30N 47°17' W 003°29'5 8.5
2018-May-22 20:58N 47°13' W 003°29'4 8.2
2018-May-22 20:30N 47°09' W 003°31'1 2.1
2018-May-22 19:57N 47°08' W 003°31'4 3.3
2018-May-22 18:50N 47°04' W 003°30'2 3.4
2018-May-22 18:19N 47°03' W 003°29'1 3.5
2018-May-22 17:59N 47°02' W 003°28'2 3.3
2018-May-22 17:30N 47°00' W 003°27'2 3.4
2018-May-22 16:59N 46°59' W 003°27'2 3.4
2018-May-22 16:30N 46°57' W 003°26'2 3.5
2018-May-22 16:00N 46°55' W 003°25'1 1.6
2018-May-22 15:30N 46°55' W 003°24'2 2.3
2018-May-22 14:39N 46°57' W 003°23'0 3.3
2018-May-22 14:30N 46°57' W 003°24'1 0.3
2018-May-22 11:01N 46°57' W 003°25'0 3.0
2018-May-22 11:00N 46°57' W 003°25'8 3.0
2018-May-22 08:11N 46°50' W 003°17'0 1.1
2018-May-22 07:58N 46°50' W 003°17'4 3.3
2018-May-22 06:39N 46°47' W 003°12'1 3.5
2018-May-22 06:26N 46°47' W 003°11'5 3.5
2018-May-22 05:03N 46°44' W 003°05'1 3.5
2018-May-22 04:39N 46°44' W 003°03'1 3.5
2018-May-22 04:19N 46°43' W 003°02'2 3.7
2018-May-22 03:49N 46°42' W 002°60'1 1.6
2018-May-22 03:12N 46°42' W 003°01'1 3.1
2018-May-22 02:49N 46°43' W 003°03'1 3.2
2018-May-22 02:30N 46°43' W 003°04'2 3.1
2018-May-22 01:52N 46°44' W 003°07'2 3.1
2018-May-22 01:16N 46°45' W 003°09'1 3.1
2018-May-22 00:56N 46°46' W 003°10'2 3.0
2018-May-22 00:12N 46°46' W 003°13'1 3.1
2018-May-22 00:00N 46°46' W 003°14'2 3.1
2018-May-21 23:30N 46°46' W 003°17'2 3.1
2018-May-21 23:00N 46°46' W 003°19'22 2.7
2018-May-21 15:01N 47°02' W 003°41'0 3.2
2018-May-21 15:00N 47°02' W 003°41'2 3.1
2018-May-21 14:30N 47°03' W 003°41'7 5.8
2018-May-21 13:19N 47°10' W 003°38'3 9.2
2018-May-21 13:00N 47°12' W 003°36'5 9.2
2018-May-21 12:30N 47°16' W 003°33'4 8.9
2018-May-21 12:00N 47°21' W 003°30'5 9.1
2018-May-21 11:30N 47°25' W 003°28'5 9.3
2018-May-21 11:00N 47°29' W 003°25'4 8.7
2018-May-21 10:30N 47°33' W 003°22'4 9.1
2018-May-21 10:00N 47°37' W 003°22'4 8.9
2018-May-21 09:30N 47°42' W 003°22'2 3.8
2018-May-21 09:00N 47°44' W 003°22'0 0.1
2018-May-21 08:30N 47°44' W 003°22'  
2018-May-18 12:24N 47°44' W 003°22'0 0.0
2018-May-18 12:00N 47°44' W 003°22'0 0.0
2018-May-18 04:12N 47°44' W 003°22'0 0.0
2018-May-18 04:00N 47°44' W 003°22'0 0.0
2018-May-18 03:30N 47°44' W 003°22'0 0.0
2018-May-18 03:00N 47°44' W 003°22'0 0.0
2018-May-18 02:30N 47°44' W 003°22'0 0.0
2018-May-18 02:00N 47°44' W 003°22'0 0.0
2018-May-18 01:30N 47°44' W 003°22'0 0.0
2018-May-18 01:00N 47°44' W 003°22'0 0.0
2018-May-18 00:30N 47°44' W 003°22'0 0.0
2018-May-18 00:01N 47°44' W 003°22'0 0.1
2018-May-17 23:30N 47°44' W 003°22'0 0.3
2018-May-17 23:00N 47°44' W 003°22'0 0.0
2018-May-17 22:30N 47°44' W 003°22'0 0.0
2018-May-17 22:01N 47°44' W 003°22'2 3.3
2018-May-17 21:30N 47°42' W 003°22'4 8.3
2018-May-17 21:00N 47°38' W 003°23'4 7.3
2018-May-17 20:30N 47°36' W 003°27'4 8.6
2018-May-17 20:00N 47°33' W 003°32'3 5.6
2018-May-17 19:30N 47°31' W 003°35'0 0.5
2018-May-17 19:00N 47°31' W 003°35'0 0.2
2018-May-17 18:30N 47°31' W 003°35'2 3.3
2018-May-17 18:00N 47°30' W 003°34'2 3.3
2018-May-17 17:30N 47°29' W 003°36'2 3.7
2018-May-17 17:00N 47°29' W 003°39'1 2.5
2018-May-17 16:30N 47°27' W 003°39'1 2.3
2018-May-17 16:00N 47°28' W 003°38'1 2.6
2018-May-17 15:30N 47°27' W 003°37'2 3.1
2018-May-17 15:00N 47°27' W 003°39'2 3.1
2018-May-17 14:30N 47°28' W 003°40'1 2.8
2018-May-17 14:00N 47°28' W 003°38'1 2.9
2018-May-17 13:30N 47°27' W 003°36'1 2.6
2018-May-17 13:00N 47°28' W 003°38'2 3.4
2018-May-17 12:30N 47°27' W 003°40'1 2.6
2018-May-17 12:00N 47°27' W 003°42'2 3.2
2018-May-17 11:30N 47°28' W 003°40'2 3.3
2018-May-17 10:58N 47°29' W 003°38'2 3.4
2018-May-17 10:31N 47°28' W 003°36'1 2.5
2018-May-17 10:00N 47°27' W 003°38'2 3.1
2018-May-17 09:30N 47°28' W 003°40'2 3.2
2018-May-17 09:00N 47°29' W 003°38'2 3.5
2018-May-17 08:30N 47°29' W 003°36'1 2.6
2018-May-17 08:00N 47°28' W 003°37'1 1.7
2018-May-17 07:29N 47°27' W 003°37'1 2.8
2018-May-17 07:00N 47°27' W 003°39'1 2.9
2018-May-17 06:30N 47°28' W 003°40'1 1.5
2018-May-17 06:00N 47°27' W 003°41'2 3.2
2018-May-17 05:30N 47°28' W 003°39'2 3.5
2018-May-17 04:59N 47°30' W 003°38'  

Dump ship's entire track history